sensor_id;sensor_type;location;lat;lon;timestamp;temperature;humidity
75799;DHT22;65035;44.726;37.764;2023-02-28T00:00:14;18.50;118.99
75799;DHT22;65035;44.726;37.764;2023-02-28T00:01:19;18.49;118.99
75799;DHT22;65035;44.726;37.764;2023-02-28T00:02:24;18.50;118.99
75799;DHT22;65035;44.726;37.764;2023-02-28T00:03:29;18.48;118.99
75799;DHT22;65035;44.726;37.764;2023-02-28T00:04:34;18.49;118.99
75799;DHT22;65035;44.726;37.764;2023-02-28T00:05:38;18.49;118.99
75799;DHT22;65035;44.726;37.764;2023-02-28T00:06:42;18.47;118.99
75799;DHT22;65035;44.726;37.764;2023-02-28T00:07:46;18.48;118.99
75799;DHT22;65035;44.726;37.764;2023-02-28T00:08:50;18.47;118.99
75799;DHT22;65035;44.726;37.764;2023-02-28T00:09:58;18.50;118.99
75799;DHT22;65035;44.726;37.764;2023-02-28T00:11:07;18.48;118.99
75799;DHT22;65035;44.726;37.764;2023-02-28T00:12:10;18.47;118.99
75799;DHT22;65035;44.726;37.764;2023-02-28T00:13:15;18.50;118.99
75799;DHT22;65035;44.726;37.764;2023-02-28T00:14:20;18.48;118.99
75799;DHT22;65035;44.726;37.764;2023-02-28T00:15:24;18.47;118.99
75799;DHT22;65035;44.726;37.764;2023-02-28T00:16:28;18.49;118.99
75799;DHT22;65035;44.726;37.764;2023-02-28T00:17:32;18.49;118.99
75799;DHT22;65035;44.726;37.764;2023-02-28T00:18:39;18.49;118.99
75799;DHT22;65035;44.726;37.764;2023-02-28T00:19:43;18.46;118.99
75799;DHT22;65035;44.726;37.764;2023-02-28T00:20:48;18.49;118.99
75799;DHT22;65035;44.726;37.764;2023-02-28T00:21:51;18.46;118.99
75799;DHT22;65035;44.726;37.764;2023-02-28T00:22:55;18.49;118.99
75799;DHT22;65035;44.726;37.764;2023-02-28T00:23:59;18.48;118.99
75799;DHT22;65035;44.726;37.764;2023-02-28T00:25:04;18.48;118.99
75799;DHT22;65035;44.726;37.764;2023-02-28T00:26:09;18.50;118.99
75799;DHT22;65035;44.726;37.764;2023-02-28T00:27:20;18.49;118.99
75799;DHT22;65035;44.726;37.764;2023-02-28T00:28:23;18.47;118.99
75799;DHT22;65035;44.726;37.764;2023-02-28T00:29:34;18.49;118.99
75799;DHT22;65035;44.726;37.764;2023-02-28T00:30:39;18.42;118.99
75799;DHT22;65035;44.726;37.764;2023-02-28T00:31:44;18.46;118.99
75799;DHT22;65035;44.726;37.764;2023-02-28T00:32:48;18.40;118.99
75799;DHT22;65035;44.726;37.764;2023-02-28T00:33:56;18.40;118.99
75799;DHT22;65035;44.726;37.764;2023-02-28T00:35:01;18.41;118.99
75799;DHT22;65035;44.726;37.764;2023-02-28T00:36:08;18.39;118.99
75799;DHT22;65035;44.726;37.764;2023-02-28T00:37:13;18.44;118.99
75799;DHT22;65035;44.726;37.764;2023-02-28T00:38:17;18.39;118.99
75799;DHT22;65035;44.726;37.764;2023-02-28T00:39:22;18.40;118.99
75799;DHT22;65035;44.726;37.764;2023-02-28T00:40:26;18.41;118.99
75799;DHT22;65035;44.726;37.764;2023-02-28T00:41:31;18.43;118.99
75799;DHT22;65035;44.726;37.764;2023-02-28T00:42:34;18.41;118.99
75799;DHT22;65035;44.726;37.764;2023-02-28T00:43:43;18.42;118.99
75799;DHT22;65035;44.726;37.764;2023-02-28T00:44:48;18.41;118.99
75799;DHT22;65035;44.726;37.764;2023-02-28T00:45:52;18.41;118.99
75799;DHT22;65035;44.726;37.764;2023-02-28T00:47:00;18.39;118.99
75799;DHT22;65035;44.726;37.764;2023-02-28T00:48:03;18.40;118.99
75799;DHT22;65035;44.726;37.764;2023-02-28T00:49:06;18.40;118.99
75799;DHT22;65035;44.726;37.764;2023-02-28T00:50:10;18.42;118.99
75799;DHT22;65035;44.726;37.764;2023-02-28T00:51:15;18.40;118.99
75799;DHT22;65035;44.726;37.764;2023-02-28T00:52:21;18.41;118.99
75799;DHT22;65035;44.726;37.764;2023-02-28T00:53:26;18.41;118.99
75799;DHT22;65035;44.726;37.764;2023-02-28T00:54:32;18.39;118.99
75799;DHT22;65035;44.726;37.764;2023-02-28T00:55:37;18.39;118.99
75799;DHT22;65035;44.726;37.764;2023-02-28T00:56:42;18.43;118.99
75799;DHT22;65035;44.726;37.764;2023-02-28T00:57:47;18.44;118.99
75799;DHT22;65035;44.726;37.764;2023-02-28T00:58:51;18.42;118.99
75799;DHT22;65035;44.726;37.764;2023-02-28T01:00:14;18.41;118.99
75799;DHT22;65035;44.726;37.764;2023-02-28T01:01:19;18.41;118.99
75799;DHT22;65035;44.726;37.764;2023-02-28T01:02:23;18.43;118.99
75799;DHT22;65035;44.726;37.764;2023-02-28T01:03:28;18.44;118.99
75799;DHT22;65035;44.726;37.764;2023-02-28T01:04:33;18.41;118.99
75799;DHT22;65035;44.726;37.764;2023-02-28T01:05:37;18.43;118.99
75799;DHT22;65035;44.726;37.764;2023-02-28T01:06:42;18.42;118.99
75799;DHT22;65035;44.726;37.764;2023-02-28T01:07:47;18.41;118.99
75799;DHT22;65035;44.726;37.764;2023-02-28T01:08:51;18.42;118.99
75799;DHT22;65035;44.726;37.764;2023-02-28T01:09:57;18.42;118.99
75799;DHT22;65035;44.726;37.764;2023-02-28T01:11:11;18.42;118.99
75799;DHT22;65035;44.726;37.764;2023-02-28T01:12:16;18.42;118.99
75799;DHT22;65035;44.726;37.764;2023-02-28T01:13:22;18.46;118.99
75799;DHT22;65035;44.726;37.764;2023-02-28T01:14:29;18.44;118.99
75799;DHT22;65035;44.726;37.764;2023-02-28T01:15:34;18.41;118.99
75799;DHT22;65035;44.726;37.764;2023-02-28T01:16:37;18.42;118.99
75799;DHT22;65035;44.726;37.764;2023-02-28T01:17:42;18.43;118.99
75799;DHT22;65035;44.726;37.764;2023-02-28T01:18:46;18.44;118.99
75799;DHT22;65035;44.726;37.764;2023-02-28T01:19:54;18.43;118.99
75799;DHT22;65035;44.726;37.764;2023-02-28T01:21:09;18.41;118.99
75799;DHT22;65035;44.726;37.764;2023-02-28T01:22:14;18.40;118.99
75799;DHT22;65035;44.726;37.764;2023-02-28T01:23:21;18.41;118.99
75799;DHT22;65035;44.726;37.764;2023-02-28T01:24:32;18.41;118.99
75799;DHT22;65035;44.726;37.764;2023-02-28T01:25:38;18.40;118.99
75799;DHT22;65035;44.726;37.764;2023-02-28T01:26:43;18.43;118.99
75799;DHT22;65035;44.726;37.764;2023-02-28T01:27:48;18.42;118.99
75799;DHT22;65035;44.726;37.764;2023-02-28T01:28:54;18.43;118.99
75799;DHT22;65035;44.726;37.764;2023-02-28T01:29:57;18.43;118.99
75799;DHT22;65035;44.726;37.764;2023-02-28T01:31:04;18.43;118.99
75799;DHT22;65035;44.726;37.764;2023-02-28T01:32:07;18.42;118.99
75799;DHT22;65035;44.726;37.764;2023-02-28T01:33:12;18.43;118.99
75799;DHT22;65035;44.726;37.764;2023-02-28T01:34:16;18.42;118.99
75799;DHT22;65035;44.726;37.764;2023-02-28T01:35:20;18.43;118.99
75799;DHT22;65035;44.726;37.764;2023-02-28T01:36:24;18.42;118.99
75799;DHT22;65035;44.726;37.764;2023-02-28T01:37:30;18.43;118.99
75799;DHT22;65035;44.726;37.764;2023-02-28T01:38:34;18.41;118.99
75799;DHT22;65035;44.726;37.764;2023-02-28T01:39:36;18.44;118.99
75799;DHT22;65035;44.726;37.764;2023-02-28T01:40:41;18.42;118.99
75799;DHT22;65035;44.726;37.764;2023-02-28T01:41:46;18.41;118.99
75799;DHT22;65035;44.726;37.764;2023-02-28T01:42:51;18.40;118.99
75799;DHT22;65035;44.726;37.764;2023-02-28T01:45:29;18.41;118.99
75799;DHT22;65035;44.726;37.764;2023-02-28T01:46:34;18.40;118.99
75799;DHT22;65035;44.726;37.764;2023-02-28T01:47:41;18.41;118.99
75799;DHT22;65035;44.726;37.764;2023-02-28T01:49:01;18.41;118.99
75799;DHT22;65035;44.726;37.764;2023-02-28T01:50:28;18.40;118.99
75799;DHT22;65035;44.726;37.764;2023-02-28T01:51:38;18.40;118.99
75799;DHT22;65035;44.726;37.764;2023-02-28T01:52:51;18.40;118.99
75799;DHT22;65035;44.726;37.764;2023-02-28T01:54:03;18.41;118.99
75799;DHT22;65035;44.726;37.764;2023-02-28T01:55:11;18.38;118.99
75799;DHT22;65035;44.726;37.764;2023-02-28T01:56:20;18.39;118.99
75799;DHT22;65035;44.726;37.764;2023-02-28T01:57:30;18.40;118.99
75799;DHT22;65035;44.726;37.764;2023-02-28T01:58:41;18.40;118.99
75799;DHT22;65035;44.726;37.764;2023-02-28T01:59:53;18.40;118.99
75799;DHT22;65035;44.726;37.764;2023-02-28T02:00:58;18.39;118.99
75799;DHT22;65035;44.726;37.764;2023-02-28T02:02:02;18.39;118.99
75799;DHT22;65035;44.726;37.764;2023-02-28T02:03:09;18.39;118.99
75799;DHT22;65035;44.726;37.764;2023-02-28T02:04:18;18.40;118.99
75799;DHT22;65035;44.726;37.764;2023-02-28T02:05:27;18.39;118.99
75799;DHT22;65035;44.726;37.764;2023-02-28T02:06:43;18.38;118.99
75799;DHT22;65035;44.726;37.764;2023-02-28T02:07:52;18.38;118.99
75799;DHT22;65035;44.726;37.764;2023-02-28T02:08:58;18.38;118.99
75799;DHT22;65035;44.726;37.764;2023-02-28T02:10:41;18.38;118.99
75799;DHT22;65035;44.726;37.764;2023-02-28T02:11:47;18.40;118.99
75799;DHT22;65035;44.726;37.764;2023-02-28T02:15:02;18.39;118.99
75799;DHT22;65035;44.726;37.764;2023-02-28T02:16:14;18.38;118.99
75799;DHT22;65035;44.726;37.764;2023-02-28T02:17:35;18.36;118.99
75799;DHT22;65035;44.726;37.764;2023-02-28T02:26:20;18.35;118.99
75799;DHT22;65035;44.726;37.764;2023-02-28T02:29:40;18.33;118.99
75799;DHT22;65035;44.726;37.764;2023-02-28T02:36:04;18.33;118.99
75799;DHT22;65035;44.726;37.764;2023-02-28T02:37:21;18.34;118.99
75799;DHT22;65035;44.726;37.764;2023-02-28T02:41:59;18.37;118.99
75799;DHT22;65035;44.726;37.764;2023-02-28T02:43:29;18.36;118.99
75799;DHT22;65035;44.726;37.764;2023-02-28T02:44:41;18.35;118.99
75799;DHT22;65035;44.726;37.764;2023-02-28T02:45:52;18.36;118.99
75799;DHT22;65035;44.726;37.764;2023-02-28T02:47:08;18.38;118.99
75799;DHT22;65035;44.726;37.764;2023-02-28T02:48:17;18.37;118.99
75799;DHT22;65035;44.726;37.764;2023-02-28T02:49:25;18.40;118.99
75799;DHT22;65035;44.726;37.764;2023-02-28T02:50:38;18.38;118.99
75799;DHT22;65035;44.726;37.764;2023-02-28T02:51:44;18.39;118.99
75799;DHT22;65035;44.726;37.764;2023-02-28T02:52:53;18.39;118.99
75799;DHT22;65035;44.726;37.764;2023-02-28T02:54:18;18.37;118.99
75799;DHT22;65035;44.726;37.764;2023-02-28T02:55:24;18.38;118.99
75799;DHT22;65035;44.726;37.764;2023-02-28T02:56:29;18.35;118.99
75799;DHT22;65035;44.726;37.764;2023-02-28T02:58:01;18.35;118.99
75799;DHT22;65035;44.726;37.764;2023-02-28T02:59:09;18.33;118.99
75799;DHT22;65035;44.726;37.764;2023-02-28T03:00:18;18.35;118.99
75799;DHT22;65035;44.726;37.764;2023-02-28T03:01:26;18.34;118.99
75799;DHT22;65035;44.726;37.764;2023-02-28T03:02:35;18.35;118.99
75799;DHT22;65035;44.726;37.764;2023-02-28T03:03:40;18.37;118.99
75799;DHT22;65035;44.726;37.764;2023-02-28T03:04:50;18.36;118.99
75799;DHT22;65035;44.726;37.764;2023-02-28T03:05:58;18.36;118.99
75799;DHT22;65035;44.726;37.764;2023-02-28T03:07:02;18.36;118.99
75799;DHT22;65035;44.726;37.764;2023-02-28T03:08:07;18.32;118.99
75799;DHT22;65035;44.726;37.764;2023-02-28T03:09:12;18.36;118.99
75799;DHT22;65035;44.726;37.764;2023-02-28T03:10:33;18.32;118.99
75799;DHT22;65035;44.726;37.764;2023-02-28T03:11:37;18.35;118.99
75799;DHT22;65035;44.726;37.764;2023-02-28T03:12:57;18.37;118.99
75799;DHT22;65035;44.726;37.764;2023-02-28T03:15:28;18.35;118.99
75799;DHT22;65035;44.726;37.764;2023-02-28T03:16:41;18.37;118.99
75799;DHT22;65035;44.726;37.764;2023-02-28T03:20:58;18.33;118.99
75799;DHT22;65035;44.726;37.764;2023-02-28T03:24:11;18.34;118.99
75799;DHT22;65035;44.726;37.764;2023-02-28T03:25:27;18.36;118.99
75799;DHT22;65035;44.726;37.764;2023-02-28T03:26:38;18.35;118.99
75799;DHT22;65035;44.726;37.764;2023-02-28T03:28:12;18.35;118.99
75799;DHT22;65035;44.726;37.764;2023-02-28T03:29:30;18.34;118.99
75799;DHT22;65035;44.726;37.764;2023-02-28T03:31:58;18.33;118.99
75799;DHT22;65035;44.726;37.764;2023-02-28T03:33:15;18.33;118.99
75799;DHT22;65035;44.726;37.764;2023-02-28T03:34:24;18.37;118.99
75799;DHT22;65035;44.726;37.764;2023-02-28T03:35:32;18.37;118.99
75799;DHT22;65035;44.726;37.764;2023-02-28T03:36:47;18.40;118.99
75799;DHT22;65035;44.726;37.764;2023-02-28T03:38:18;18.41;118.99
75799;DHT22;65035;44.726;37.764;2023-02-28T03:39:42;18.41;118.99
75799;DHT22;65035;44.726;37.764;2023-02-28T03:40:51;18.43;118.99
75799;DHT22;65035;44.726;37.764;2023-02-28T03:42:02;18.46;118.99
75799;DHT22;65035;44.726;37.764;2023-02-28T03:43:10;18.48;118.99
75799;DHT22;65035;44.726;37.764;2023-02-28T03:44:39;18.47;118.99
75799;DHT22;65035;44.726;37.764;2023-02-28T03:45:47;18.49;118.99
75799;DHT22;65035;44.726;37.764;2023-02-28T03:46:58;18.44;118.99
75799;DHT22;65035;44.726;37.764;2023-02-28T03:48:12;18.50;118.99
75799;DHT22;65035;44.726;37.764;2023-02-28T03:49:32;18.47;118.99
75799;DHT22;65035;44.726;37.764;2023-02-28T03:50:41;18.49;118.99
75799;DHT22;65035;44.726;37.764;2023-02-28T03:51:48;18.51;118.99
75799;DHT22;65035;44.726;37.764;2023-02-28T03:53:01;18.52;118.99
75799;DHT22;65035;44.726;37.764;2023-02-28T03:54:12;18.52;118.99
75799;DHT22;65035;44.726;37.764;2023-02-28T03:55:19;18.52;118.99
75799;DHT22;65035;44.726;37.764;2023-02-28T03:56:37;18.53;118.99
75799;DHT22;65035;44.726;37.764;2023-02-28T03:59:14;18.50;118.99
75799;DHT22;65035;44.726;37.764;2023-02-28T04:00:21;18.50;118.99
75799;DHT22;65035;44.726;37.764;2023-02-28T04:01:34;18.49;118.99
75799;DHT22;65035;44.726;37.764;2023-02-28T04:02:40;18.51;118.99
75799;DHT22;65035;44.726;37.764;2023-02-28T04:03:44;18.48;118.99
75799;DHT22;65035;44.726;37.764;2023-02-28T04:04:47;18.48;118.99
75799;DHT22;65035;44.726;37.764;2023-02-28T04:05:53;18.46;118.99
75799;DHT22;65035;44.726;37.764;2023-02-28T04:07:06;18.48;118.99
75799;DHT22;65035;44.726;37.764;2023-02-28T04:08:09;18.49;118.99
75799;DHT22;65035;44.726;37.764;2023-02-28T04:09:14;18.51;118.99
75799;DHT22;65035;44.726;37.764;2023-02-28T04:10:18;18.51;118.99
75799;DHT22;65035;44.726;37.764;2023-02-28T04:12:39;18.47;118.99
75799;DHT22;65035;44.726;37.764;2023-02-28T04:13:44;18.54;118.99
75799;DHT22;65035;44.726;37.764;2023-02-28T04:14:49;18.55;118.99
75799;DHT22;65035;44.726;37.764;2023-02-28T04:15:54;18.57;118.99
75799;DHT22;65035;44.726;37.764;2023-02-28T04:16:58;18.58;118.99
75799;DHT22;65035;44.726;37.764;2023-02-28T04:18:03;18.58;118.99
75799;DHT22;65035;44.726;37.764;2023-02-28T04:19:08;18.62;118.99
75799;DHT22;65035;44.726;37.764;2023-02-28T04:20:13;18.63;118.99
75799;DHT22;65035;44.726;37.764;2023-02-28T04:21:17;18.62;118.99
75799;DHT22;65035;44.726;37.764;2023-02-28T04:22:25;18.64;118.99
75799;DHT22;65035;44.726;37.764;2023-02-28T04:23:30;18.67;118.99
75799;DHT22;65035;44.726;37.764;2023-02-28T04:24:36;18.66;118.99
75799;DHT22;65035;44.726;37.764;2023-02-28T04:25:39;18.67;118.99
75799;DHT22;65035;44.726;37.764;2023-02-28T04:26:46;18.70;118.99
75799;DHT22;65035;44.726;37.764;2023-02-28T04:27:51;18.70;118.99
75799;DHT22;65035;44.726;37.764;2023-02-28T04:28:55;18.68;118.99
75799;DHT22;65035;44.726;37.764;2023-02-28T04:29:59;18.72;118.99
75799;DHT22;65035;44.726;37.764;2023-02-28T04:31:05;18.73;118.99
75799;DHT22;65035;44.726;37.764;2023-02-28T04:32:09;18.77;118.99
75799;DHT22;65035;44.726;37.764;2023-02-28T04:33:14;18.78;118.99
75799;DHT22;65035;44.726;37.764;2023-02-28T04:34:17;18.79;118.99
75799;DHT22;65035;44.726;37.764;2023-02-28T04:35:22;18.80;118.99
75799;DHT22;65035;44.726;37.764;2023-02-28T04:36:28;18.82;118.99
75799;DHT22;65035;44.726;37.764;2023-02-28T04:37:33;18.83;118.99
75799;DHT22;65035;44.726;37.764;2023-02-28T04:38:38;18.83;118.99
75799;DHT22;65035;44.726;37.764;2023-02-28T04:39:42;18.87;118.99
75799;DHT22;65035;44.726;37.764;2023-02-28T04:40:45;18.87;118.99
75799;DHT22;65035;44.726;37.764;2023-02-28T04:41:50;18.89;118.99
75799;DHT22;65035;44.726;37.764;2023-02-28T04:42:55;18.91;118.99
75799;DHT22;65035;44.726;37.764;2023-02-28T04:43:59;18.89;118.99
75799;DHT22;65035;44.726;37.764;2023-02-28T04:45:04;18.91;118.99
75799;DHT22;65035;44.726;37.764;2023-02-28T04:46:08;18.92;118.99
75799;DHT22;65035;44.726;37.764;2023-02-28T04:47:13;18.92;118.99
75799;DHT22;65035;44.726;37.764;2023-02-28T04:48:17;18.95;118.99
75799;DHT22;65035;44.726;37.764;2023-02-28T04:49:23;18.94;118.99
75799;DHT22;65035;44.726;37.764;2023-02-28T04:50:27;18.95;118.99
75799;DHT22;65035;44.726;37.764;2023-02-28T04:51:32;18.94;118.99
75799;DHT22;65035;44.726;37.764;2023-02-28T04:52:36;18.96;118.99
75799;DHT22;65035;44.726;37.764;2023-02-28T04:53:41;18.97;118.99
75799;DHT22;65035;44.726;37.764;2023-02-28T04:54:45;18.98;118.99
75799;DHT22;65035;44.726;37.764;2023-02-28T04:55:49;18.96;118.99
75799;DHT22;65035;44.726;37.764;2023-02-28T04:56:52;18.97;118.99
75799;DHT22;65035;44.726;37.764;2023-02-28T04:57:57;18.99;118.99
75799;DHT22;65035;44.726;37.764;2023-02-28T04:59:02;18.98;118.99
75799;DHT22;65035;44.726;37.764;2023-02-28T05:00:09;19.01;118.99
75799;DHT22;65035;44.726;37.764;2023-02-28T05:02:21;19.02;118.99
75799;DHT22;65035;44.726;37.764;2023-02-28T05:03:27;18.99;118.99
75799;DHT22;65035;44.726;37.764;2023-02-28T05:04:34;19.01;118.99
75799;DHT22;65035;44.726;37.764;2023-02-28T05:05:38;19.01;118.99
75799;DHT22;65035;44.726;37.764;2023-02-28T05:06:42;19.03;118.99
75799;DHT22;65035;44.726;37.764;2023-02-28T05:07:46;19.01;118.99
75799;DHT22;65035;44.726;37.764;2023-02-28T05:08:51;19.02;118.99
75799;DHT22;65035;44.726;37.764;2023-02-28T05:09:57;19.01;118.99
75799;DHT22;65035;44.726;37.764;2023-02-28T05:11:01;19.05;118.99
75799;DHT22;65035;44.726;37.764;2023-02-28T05:12:05;19.03;118.99
75799;DHT22;65035;44.726;37.764;2023-02-28T05:13:12;19.06;118.99
75799;DHT22;65035;44.726;37.764;2023-02-28T05:14:18;19.08;118.99
75799;DHT22;65035;44.726;37.764;2023-02-28T05:15:23;19.05;118.99
75799;DHT22;65035;44.726;37.764;2023-02-28T05:16:27;19.07;118.99
75799;DHT22;65035;44.726;37.764;2023-02-28T05:17:32;19.06;118.99
75799;DHT22;65035;44.726;37.764;2023-02-28T05:18:36;19.06;118.99
75799;DHT22;65035;44.726;37.764;2023-02-28T05:19:40;19.03;118.99
75799;DHT22;65035;44.726;37.764;2023-02-28T05:20:45;19.01;118.99
75799;DHT22;65035;44.726;37.764;2023-02-28T05:21:52;19.07;118.99
75799;DHT22;65035;44.726;37.764;2023-02-28T05:22:59;19.07;118.99
75799;DHT22;65035;44.726;37.764;2023-02-28T05:24:10;19.08;118.99
75799;DHT22;65035;44.726;37.764;2023-02-28T05:25:17;19.09;118.99
75799;DHT22;65035;44.726;37.764;2023-02-28T05:26:23;19.08;118.99
75799;DHT22;65035;44.726;37.764;2023-02-28T05:27:28;19.09;118.99
75799;DHT22;65035;44.726;37.764;2023-02-28T05:28:32;19.09;118.99
75799;DHT22;65035;44.726;37.764;2023-02-28T05:29:37;19.09;118.99
75799;DHT22;65035;44.726;37.764;2023-02-28T05:30:46;19.09;118.99
75799;DHT22;65035;44.726;37.764;2023-02-28T05:31:51;19.07;118.99
75799;DHT22;65035;44.726;37.764;2023-02-28T05:32:56;19.10;118.99
75799;DHT22;65035;44.726;37.764;2023-02-28T05:34:01;19.10;118.99
75799;DHT22;65035;44.726;37.764;2023-02-28T05:35:10;19.11;118.99
75799;DHT22;65035;44.726;37.764;2023-02-28T05:36:15;19.07;118.99
75799;DHT22;65035;44.726;37.764;2023-02-28T05:37:20;19.11;118.99
75799;DHT22;65035;44.726;37.764;2023-02-28T05:38:24;19.13;118.99
75799;DHT22;65035;44.726;37.764;2023-02-28T05:39:28;19.12;118.99
75799;DHT22;65035;44.726;37.764;2023-02-28T05:40:31;19.10;118.99
75799;DHT22;65035;44.726;37.764;2023-02-28T05:41:35;19.14;118.99
75799;DHT22;65035;44.726;37.764;2023-02-28T05:42:40;19.11;118.99
75799;DHT22;65035;44.726;37.764;2023-02-28T05:43:44;19.11;118.99
75799;DHT22;65035;44.726;37.764;2023-02-28T05:44:48;19.14;118.99
75799;DHT22;65035;44.726;37.764;2023-02-28T05:45:52;19.11;118.99
75799;DHT22;65035;44.726;37.764;2023-02-28T05:46:56;19.12;118.99
75799;DHT22;65035;44.726;37.764;2023-02-28T05:48:01;19.15;118.99
75799;DHT22;65035;44.726;37.764;2023-02-28T05:49:05;19.12;118.99
75799;DHT22;65035;44.726;37.764;2023-02-28T05:50:09;19.13;118.99
75799;DHT22;65035;44.726;37.764;2023-02-28T05:51:14;19.12;118.99
75799;DHT22;65035;44.726;37.764;2023-02-28T05:52:19;19.11;118.99
75799;DHT22;65035;44.726;37.764;2023-02-28T05:53:24;19.12;118.99
75799;DHT22;65035;44.726;37.764;2023-02-28T05:54:29;19.13;118.99
75799;DHT22;65035;44.726;37.764;2023-02-28T05:55:33;19.14;118.99
75799;DHT22;65035;44.726;37.764;2023-02-28T05:56:39;19.12;118.99
75799;DHT22;65035;44.726;37.764;2023-02-28T05:57:45;19.15;118.99
75799;DHT22;65035;44.726;37.764;2023-02-28T05:58:49;19.16;118.99
75799;DHT22;65035;44.726;37.764;2023-02-28T05:59:54;19.15;118.99
75799;DHT22;65035;44.726;37.764;2023-02-28T06:00:59;19.17;118.99
75799;DHT22;65035;44.726;37.764;2023-02-28T06:02:02;19.15;118.99
75799;DHT22;65035;44.726;37.764;2023-02-28T06:03:06;19.16;118.99
75799;DHT22;65035;44.726;37.764;2023-02-28T06:04:11;19.20;118.99
75799;DHT22;65035;44.726;37.764;2023-02-28T06:05:31;19.16;118.99
75799;DHT22;65035;44.726;37.764;2023-02-28T06:06:35;19.17;118.99
75799;DHT22;65035;44.726;37.764;2023-02-28T06:07:40;19.14;118.99
75799;DHT22;65035;44.726;37.764;2023-02-28T06:08:45;19.18;118.99
75799;DHT22;65035;44.726;37.764;2023-02-28T06:09:48;19.16;118.99
75799;DHT22;65035;44.726;37.764;2023-02-28T06:10:57;19.13;118.99
75799;DHT22;65035;44.726;37.764;2023-02-28T06:12:03;19.16;118.99
75799;DHT22;65035;44.726;37.764;2023-02-28T06:13:08;19.20;118.99
75799;DHT22;65035;44.726;37.764;2023-02-28T06:14:18;19.17;118.99
75799;DHT22;65035;44.726;37.764;2023-02-28T06:15:22;19.20;118.99
75799;DHT22;65035;44.726;37.764;2023-02-28T06:16:31;19.17;118.99
75799;DHT22;65035;44.726;37.764;2023-02-28T06:17:36;19.17;118.99
75799;DHT22;65035;44.726;37.764;2023-02-28T06:18:39;19.20;118.99
75799;DHT22;65035;44.726;37.764;2023-02-28T06:19:43;19.22;118.99
75799;DHT22;65035;44.726;37.764;2023-02-28T06:20:54;19.21;118.99
75799;DHT22;65035;44.726;37.764;2023-02-28T06:21:59;19.18;118.99
75799;DHT22;65035;44.726;37.764;2023-02-28T06:23:04;19.22;118.99
75799;DHT22;65035;44.726;37.764;2023-02-28T06:24:08;19.23;118.99
75799;DHT22;65035;44.726;37.764;2023-02-28T06:25:13;19.21;118.99
75799;DHT22;65035;44.726;37.764;2023-02-28T06:26:17;19.23;118.99
75799;DHT22;65035;44.726;37.764;2023-02-28T06:27:21;19.24;118.99
75799;DHT22;65035;44.726;37.764;2023-02-28T06:28:26;19.21;118.99
75799;DHT22;65035;44.726;37.764;2023-02-28T06:29:34;19.18;118.99
75799;DHT22;65035;44.726;37.764;2023-02-28T06:30:40;19.22;118.99
75799;DHT22;65035;44.726;37.764;2023-02-28T06:31:48;19.21;118.99
75799;DHT22;65035;44.726;37.764;2023-02-28T06:32:52;19.21;118.99
75799;DHT22;65035;44.726;37.764;2023-02-28T06:33:57;19.20;118.99
75799;DHT22;65035;44.726;37.764;2023-02-28T06:35:01;19.21;118.99
75799;DHT22;65035;44.726;37.764;2023-02-28T06:36:07;19.20;118.99
75799;DHT22;65035;44.726;37.764;2023-02-28T06:37:10;19.22;118.99
75799;DHT22;65035;44.726;37.764;2023-02-28T06:38:15;19.20;118.99
75799;DHT22;65035;44.726;37.764;2023-02-28T06:39:19;19.21;118.99
75799;DHT22;65035;44.726;37.764;2023-02-28T06:40:24;19.21;118.99
75799;DHT22;65035;44.726;37.764;2023-02-28T06:41:29;19.22;118.99
75799;DHT22;65035;44.726;37.764;2023-02-28T06:42:49;19.21;118.99
75799;DHT22;65035;44.726;37.764;2023-02-28T06:43:56;19.22;118.99
75799;DHT22;65035;44.726;37.764;2023-02-28T06:45:01;19.24;118.99
75799;DHT22;65035;44.726;37.764;2023-02-28T06:46:12;19.23;118.99
75799;DHT22;65035;44.726;37.764;2023-02-28T06:47:17;19.23;118.99
75799;DHT22;65035;44.726;37.764;2023-02-28T06:48:21;19.22;118.99
75799;DHT22;65035;44.726;37.764;2023-02-28T06:49:26;19.22;118.99
75799;DHT22;65035;44.726;37.764;2023-02-28T06:50:31;19.24;118.99
75799;DHT22;65035;44.726;37.764;2023-02-28T06:51:41;19.25;118.99
75799;DHT22;65035;44.726;37.764;2023-02-28T06:52:48;19.23;118.99
75799;DHT22;65035;44.726;37.764;2023-02-28T06:53:57;19.24;118.99
75799;DHT22;65035;44.726;37.764;2023-02-28T06:55:02;19.26;118.99
75799;DHT22;65035;44.726;37.764;2023-02-28T06:56:09;19.25;118.99
75799;DHT22;65035;44.726;37.764;2023-02-28T06:57:13;19.24;118.99
75799;DHT22;65035;44.726;37.764;2023-02-28T06:58:17;19.23;118.99
75799;DHT22;65035;44.726;37.764;2023-02-28T06:59:24;19.25;118.99
75799;DHT22;65035;44.726;37.764;2023-02-28T07:00:27;19.26;118.99
75799;DHT22;65035;44.726;37.764;2023-02-28T07:01:31;19.26;118.99
75799;DHT22;65035;44.726;37.764;2023-02-28T07:02:38;19.27;118.99
75799;DHT22;65035;44.726;37.764;2023-02-28T07:03:43;19.26;118.99
75799;DHT22;65035;44.726;37.764;2023-02-28T07:04:47;19.31;118.99
75799;DHT22;65035;44.726;37.764;2023-02-28T07:05:51;19.25;118.99
75799;DHT22;65035;44.726;37.764;2023-02-28T07:06:55;19.28;118.99
75799;DHT22;65035;44.726;37.764;2023-02-28T07:08:00;19.27;118.99
75799;DHT22;65035;44.726;37.764;2023-02-28T07:09:05;19.25;118.99
75799;DHT22;65035;44.726;37.764;2023-02-28T07:10:11;19.26;118.99
75799;DHT22;65035;44.726;37.764;2023-02-28T07:11:16;19.25;118.99
75799;DHT22;65035;44.726;37.764;2023-02-28T07:12:20;19.29;118.99
75799;DHT22;65035;44.726;37.764;2023-02-28T07:13:24;19.28;118.99
75799;DHT22;65035;44.726;37.764;2023-02-28T07:14:29;19.28;118.99
75799;DHT22;65035;44.726;37.764;2023-02-28T07:15:34;19.30;118.99
75799;DHT22;65035;44.726;37.764;2023-02-28T07:16:41;19.28;118.99
75799;DHT22;65035;44.726;37.764;2023-02-28T07:17:45;19.30;118.99
75799;DHT22;65035;44.726;37.764;2023-02-28T07:18:52;19.29;118.99
75799;DHT22;65035;44.726;37.764;2023-02-28T07:19:55;19.32;118.99
75799;DHT22;65035;44.726;37.764;2023-02-28T07:21:02;19.29;118.99
75799;DHT22;65035;44.726;37.764;2023-02-28T07:22:07;19.31;118.99
75799;DHT22;65035;44.726;37.764;2023-02-28T07:23:12;19.31;118.99
75799;DHT22;65035;44.726;37.764;2023-02-28T07:24:16;19.29;118.99